Time;durP1;ratioP1;P1;durP2;ratioP2;P2;SDS_P1;SDS_P2;PMS_P1;PMS_P2;Temp;Humidity;BMP_temperature;BMP_pressure;BME280_temperature;BME280_humidity;BME280_pressure;Samples;Min_cycle;Max_cycle;Signal;HPM_P1;HPM_P2
2022/09/11 00:01:36;;;;;;;4.82;1.40;;;22.50;96.70;;;;;;5042160;28;20625;-80
2022/09/11 00:04:05;;;;;;;9.60;1.23;;;22.50;96.70;;;;;;5039431;28;20050;-80
2022/09/11 00:06:32;;;;;;;7.90;1.45;;;22.50;96.70;;;;;;5037413;28;20048;-79
2022/09/11 00:09:03;;;;;;;5.47;1.30;;;22.50;96.70;;;;;;5038403;28;20053;-80
2022/09/11 00:11:34;;;;;;;8.30;1.30;;;22.30;96.70;;;;;;5038413;28;20037;-79
2022/09/11 00:14:02;;;;;;;4.55;1.05;;;22.20;96.70;;;;;;5017987;28;20090;-80
2022/09/11 00:16:34;;;;;;;7.32;0.98;;;22.30;96.70;;;;;;5040844;28;20037;-79
2022/09/11 00:19:05;;;;;;;5.45;0.98;;;22.20;96.70;;;;;;5039391;28;20056;-79
2022/09/11 00:21:33;;;;;;;4.07;1.02;;;22.30;96.70;;;;;;5039223;28;20049;-79
2022/09/11 00:24:02;;;;;;;5.43;1.00;;;22.30;96.70;;;;;;5040431;28;20106;-78
2022/09/11 00:26:30;;;;;;;4.43;1.00;;;22.30;96.70;;;;;;5040147;28;20077;-79
2022/09/11 00:29:00;;;;;;;6.28;1.25;;;22.30;96.70;;;;;;5046756;28;20576;-80
2022/09/11 00:31:31;;;;;;;6.15;1.00;;;22.20;96.70;;;;;;5045572;28;20627;-80
2022/09/11 00:33:59;;;;;;;5.05;0.93;;;22.30;96.70;;;;;;5029962;28;20057;-80
2022/09/11 00:36:30;;;;;;;5.18;0.77;;;22.30;96.70;;;;;;5042082;28;20041;-79
2022/09/11 00:38:58;;;;;;;5.03;1.00;;;22.30;96.70;;;;;;5044202;28;20041;-80
2022/09/11 00:41:27;;;;;;;5.95;0.90;;;22.20;96.70;;;;;;5041309;28;20479;-80
2022/09/11 00:43:59;;;;;;;4.47;1.00;;;22.10;96.70;;;;;;5030042;28;20049;-80
2022/09/11 00:46:37;;;;;;;5.28;1.00;;;22.20;96.70;;;;;;5043518;28;20041;-80
2022/09/11 00:49:15;;;;;;;7.55;1.38;;;22.20;96.70;;;;;;5047945;28;20041;-80
2022/09/11 00:51:46;;;;;;;7.03;1.02;;;22.30;96.70;;;;;;5045605;28;20040;-80
2022/09/11 00:54:18;;;;;;;5.50;1.52;;;22.30;96.70;;;;;;5027094;28;20088;-80
2022/09/11 00:56:47;;;;;;;5.18;1.40;;;22.30;96.70;;;;;;5035960;28;20049;-79
2022/09/11 00:59:15;;;;;;;6.68;1.52;;;22.20;96.70;;;;;;5045954;28;20069;-80
2022/09/11 01:01:45;;;;;;;6.03;1.35;;;22.20;96.70;;;;;;5043297;28;20411;-80
2022/09/11 01:04:13;;;;;;;5.82;1.35;;;22.20;96.70;;;;;;5046064;28;20037;-80
2022/09/11 01:06:41;;;;;;;4.32;1.27;;;22.10;96.70;;;;;;5041915;28;20052;-80
2022/09/11 01:09:08;;;;;;;4.53;1.30;;;22.00;96.70;;;;;;5043977;28;20033;-80
2022/09/11 01:11:46;;;;;;;4.70;1.08;;;22.10;96.70;;;;;;5030717;28;20057;-80
2022/09/11 01:14:33;;;;;;;4.45;1.17;;;22.20;96.70;;;;;;5043006;28;20068;-80
2022/09/11 01:17:14;;;;;;;3.50;0.82;;;22.10;96.70;;;;;;5042852;28;20076;-79
2022/09/11 01:20:00;;;;;;;4.45;1.25;;;22.10;96.70;;;;;;5028093;28;20060;-80
2022/09/11 01:23:06;;;;;;;5.18;0.90;;;22.00;96.70;;;;;;5042350;28;20049;-79
2022/09/11 01:25:57;;;;;;;5.32;1.20;;;22.00;96.70;;;;;;5047346;28;20087;-80
2022/09/11 01:28:32;;;;;;;5.13;1.15;;;21.90;96.70;;;;;;5043426;28;20064;-79
2022/09/11 01:31:07;;;;;;;5.30;1.13;;;21.90;96.70;;;;;;5037523;28;20064;-80
2022/09/11 01:33:43;;;;;;;3.47;0.88;;;21.90;96.70;;;;;;5044731;28;20073;-80
2022/09/11 01:36:19;;;;;;;6.40;1.50;;;21.90;96.70;;;;;;5041650;28;20083;-79
2022/09/11 01:38:51;;;;;;;9.15;1.67;;;21.90;96.70;;;;;;5043010;28;20049;-79
2022/09/11 01:41:26;;;;;;;4.80;1.35;;;21.80;96.70;;;;;;5041991;28;20043;-80
2022/09/11 01:44:02;;;;;;;7.00;2.00;;;21.70;96.70;;;;;;5040066;28;20045;-79
2022/09/11 01:46:35;;;;;;;7.07;1.30;;;21.70;96.70;;;;;;5046921;28;20521;-80
2022/09/11 01:49:09;;;;;;;4.30;1.50;;;21.70;96.70;;;;;;5041526;28;20041;-81
2022/09/11 01:51:39;;;;;;;7.25;1.25;;;21.60;96.70;;;;;;5038061;28;20240;-80
2022/09/11 01:54:11;;;;;;;4.63;1.35;;;21.50;96.70;;;;;;5040302;28;20573;-79
2022/09/11 01:56:45;;;;;;;5.32;1.20;;;21.50;96.70;;;;;;5042725;28;20052;-80
2022/09/11 01:59:26;;;;;;;4.07;1.20;;;21.60;96.70;;;;;;5040463;28;20037;-80
2022/09/11 02:02:00;;;;;;;3.80;1.30;;;21.70;96.70;;;;;;5027505;28;20056;-79
2022/09/11 02:04:32;;;;;;;6.72;1.80;;;21.80;96.70;;;;;;5043325;28;20048;-79
2022/09/11 02:07:09;;;;;;;4.00;1.23;;;21.70;96.70;;;;;;5042120;28;20041;-80
2022/09/11 02:09:44;;;;;;;7.65;1.85;;;21.70;96.70;;;;;;5044411;28;20053;-80
2022/09/11 02:12:16;;;;;;;7.30;1.38;;;21.60;96.70;;;;;;5041566;28;20450;-80
2022/09/11 02:14:48;;;;;;;5.43;1.33;;;21.50;96.70;;;;;;5028608;28;20049;-80
2022/09/11 02:17:25;;;;;;;6.13;1.38;;;21.50;96.70;;;;;;5041087;28;20148;-80
2022/09/11 02:19:55;;;;;;;5.05;1.90;;;21.60;96.70;;;;;;5041415;28;20076;-80
2022/09/11 02:22:24;;;;;;;8.45;1.67;;;21.50;96.70;;;;;;5042806;28;20053;-79
2022/09/11 02:24:52;;;;;;;5.65;1.60;;;21.60;96.70;;;;;;5044661;28;20132;-79
2022/09/11 02:27:23;;;;;;;6.28;1.80;;;21.60;96.70;;;;;;5042127;28;20172;-81
2022/09/11 02:29:54;;;;;;;5.97;1.60;;;21.50;96.70;;;;;;5043415;28;20048;-80
2022/09/11 02:32:25;;;;;;;7.35;1.80;;;21.50;96.70;;;;;;5041981;28;20048;-80
2022/09/11 02:34:55;;;;;;;6.32;1.75;;;21.60;96.70;;;;;;5044016;28;20053;-79
2022/09/11 02:37:39;;;;;;;6.15;1.40;;;21.70;96.70;;;;;;5041444;28;20045;-80
2022/09/11 02:40:41;;;;;;;4.33;1.47;;;21.70;96.70;;;;;;5025898;28;20175;-80
2022/09/11 02:43:21;;;;;;;6.25;1.38;;;21.70;96.70;;;;;;5044007;28;20051;-81
2022/09/11 02:46:03;;;;;;;5.82;1.42;;;21.70;96.70;;;;;;5041608;28;20144;-80
2022/09/11 02:48:44;;;;;;;3.58;1.50;;;21.50;96.70;;;;;;5038742;28;20107;-81
2022/09/11 02:51:21;;;;;;;8.35;1.40;;;21.50;96.70;;;;;;5040295;28;20049;-79
2022/09/11 02:53:57;;;;;;;4.70;1.08;;;21.60;96.70;;;;;;5043217;28;20573;-80
2022/09/11 02:56:38;;;;;;;8.23;1.52;;;21.60;96.70;;;;;;5025776;28;20057;-80
2022/09/11 02:59:11;;;;;;;8.63;1.90;;;21.40;96.70;;;;;;5041040;28;20032;-79
2022/09/11 03:01:50;;;;;;;7.43;1.45;;;21.50;96.70;;;;;;5039703;28;20077;-80
2022/09/11 03:04:23;;;;;;;7.78;1.80;;;21.50;96.70;;;;;;5034302;28;20091;-79
2022/09/11 03:06:53;;;;;;;8.32;1.25;;;21.60;96.70;;;;;;5026418;28;20048;-80
2022/09/11 03:09:21;;;;;;;5.47;1.40;;;21.60;96.70;;;;;;5041892;28;20043;-79
2022/09/11 03:11:54;;;;;;;5.60;1.63;;;21.70;96.70;;;;;;5042269;28;20521;-80
2022/09/11 03:14:22;;;;;;;5.90;1.23;;;21.70;96.70;;;;;;5041795;28;20045;-80
2022/09/11 03:16:52;;;;;;;5.07;1.30;;;21.80;96.70;;;;;;5036861;28;20041;-80
2022/09/11 03:19:20;;;;;;;3.78;1.30;;;21.80;96.70;;;;;;5041969;28;20156;-80
2022/09/11 03:21:49;;;;;;;6.15;1.27;;;21.70;96.70;;;;;;5039573;28;20052;-80
2022/09/11 03:24:18;;;;;;;5.80;1.48;;;21.70;96.70;;;;;;5041435;28;20395;-79
2022/09/11 03:26:46;;;;;;;5.53;1.52;;;21.60;96.70;;;;;;5026793;28;20041;-79
2022/09/11 03:29:16;;;;;;;2.60;1.10;;;21.50;96.70;;;;;;5040083;28;20405;-79
2022/09/11 03:31:45;;;;;;;3.53;1.02;;;21.50;96.70;;;;;;5042900;28;20140;-79
2022/09/11 03:34:16;;;;;;;5.10;1.20;;;21.60;96.70;;;;;;5042640;28;20067;-80
2022/09/11 03:36:46;;;;;;;6.00;1.02;;;21.60;96.70;;;;;;5042566;28;20048;-80
2022/09/11 03:39:15;;;;;;;5.57;1.40;;;21.60;96.70;;;;;;5037327;28;20491;-79
2022/09/11 03:41:43;;;;;;;4.60;1.25;;;21.60;96.70;;;;;;5043054;28;20568;-80
2022/09/11 03:44:11;;;;;;;6.55;1.35;;;21.60;96.70;;;;;;5039848;28;20051;-80
2022/09/11 03:46:39;;;;;;;5.63;1.63;;;21.50;96.70;;;;;;5042718;28;20064;-80
2022/09/11 03:49:08;;;;;;;8.32;1.65;;;21.50;96.70;;;;;;5032449;28;20046;-80
2022/09/11 03:51:38;;;;;;;5.60;1.13;;;21.50;96.70;;;;;;5041635;28;20056;-79
2022/09/11 03:54:06;;;;;;;6.63;1.33;;;21.50;96.70;;;;;;5032389;28;20056;-79
2022/09/11 03:56:36;;;;;;;4.50;1.10;;;21.50;96.70;;;;;;5036408;28;20049;-79
2022/09/11 03:59:05;;;;;;;8.07;1.55;;;21.40;96.70;;;;;;5024025;28;20044;-80
2022/09/11 04:01:35;;;;;;;6.22;1.35;;;21.40;96.70;;;;;;5042143;28;20095;-80
2022/09/11 04:04:03;;;;;;;4.43;1.25;;;21.50;96.70;;;;;;5039647;28;20052;-80
2022/09/11 04:06:40;;;;;;;5.07;1.30;;;21.40;96.70;;;;;;5034522;28;20102;-80
2022/09/11 04:09:09;;;;;;;4.50;1.00;;;21.30;96.70;;;;;;5038796;28;20055;-79
2022/09/11 04:11:39;;;;;;;6.15;1.25;;;21.30;96.70;;;;;;5039818;28;20403;-79
2022/09/11 04:14:15;;;;;;;5.20;1.15;;;21.30;96.70;;;;;;5034825;28;20057;-79
2022/09/11 04:16:43;;;;;;;8.85;1.17;;;21.30;96.70;;;;;;5031237;28;20050;-80
2022/09/11 04:19:12;;;;;;;8.45;1.40;;;21.20;96.70;;;;;;5042531;28;20057;-80
2022/09/11 04:21:44;;;;;;;5.07;1.15;;;21.20;96.70;;;;;;5041305;28;20052;-79
2022/09/11 04:24:14;;;;;;;6.70;1.25;;;21.10;96.70;;;;;;5042704;28;20075;-79
2022/09/11 04:26:46;;;;;;;6.85;1.45;;;21.10;96.70;;;;;;5038879;28;20049;-79
2022/09/11 04:29:27;;;;;;;4.35;1.10;;;21.00;96.70;;;;;;5036884;28;20509;-80
2022/09/11 04:31:56;;;;;;;5.55;1.10;;;21.00;96.70;;;;;;5040420;28;20053;-79
2022/09/11 04:34:28;;;;;;;11.10;1.58;;;21.10;96.70;;;;;;5041458;28;20136;-80
2022/09/11 04:36:57;;;;;;;5.72;2.00;;;21.00;96.70;;;;;;5037175;28;20045;-80
2022/09/11 04:39:29;;;;;;;4.72;1.20;;;21.00;96.70;;;;;;5040373;28;20045;-79
2022/09/11 04:41:58;;;;;;;6.18;1.58;;;21.10;96.70;;;;;;5041373;28;20056;-80
2022/09/11 04:44:28;;;;;;;5.35;1.30;;;21.00;96.70;;;;;;5041436;28;20049;-80
2022/09/11 04:46:56;;;;;;;5.68;2.10;;;21.10;96.70;;;;;;5039081;28;20453;-80
2022/09/11 04:49:24;;;;;;;5.80;1.40;;;21.10;96.70;;;;;;5040798;28;20045;-80
2022/09/11 04:51:52;;;;;;;4.97;1.88;;;21.00;96.70;;;;;;5038753;28;20080;-79
2022/09/11 04:54:25;;;;;;;6.63;2.20;;;21.10;96.70;;;;;;5020283;28;20045;-80
2022/09/11 04:56:53;;;;;;;8.73;1.95;;;21.10;96.70;;;;;;5039832;28;20103;-79
2022/09/11 04:59:23;;;;;;;8.32;2.40;;;21.00;96.70;;;;;;5042754;28;20041;-80
2022/09/11 05:02:11;;;;;;;10.23;2.35;;;21.00;96.70;;;;;;5024941;28;20595;-80
2022/09/11 05:04:43;;;;;;;6.22;2.15;;;21.00;96.70;;;;;;5024603;28;20048;-80
2022/09/11 05:07:13;;;;;;;8.40;2.65;;;20.80;96.70;;;;;;5039048;28;20712;-79
2022/09/11 05:09:46;;;;;;;7.85;2.78;;;20.80;96.70;;;;;;5039435;28;20423;-80
2022/09/11 05:12:16;;;;;;;5.35;2.45;;;20.80;96.70;;;;;;5042206;28;20120;-80
2022/09/11 05:14:44;;;;;;;7.10;2.08;;;20.90;96.70;;;;;;5026266;28;20686;-79
2022/09/11 05:17:12;;;;;;;7.10;2.13;;;20.90;96.70;;;;;;5028897;28;20087;-80
2022/09/11 05:19:42;;;;;;;9.05;2.22;;;20.90;96.70;;;;;;5044515;28;20128;-79
2022/09/11 05:22:10;;;;;;;8.02;2.15;;;21.00;96.70;;;;;;5041491;28;20052;-79
2022/09/11 05:24:44;;;;;;;5.63;2.15;;;20.90;96.70;;;;;;5042531;28;20147;-80
2022/09/11 05:27:13;;;;;;;6.13;1.58;;;20.90;96.70;;;;;;5029246;28;20049;-80
2022/09/11 05:29:41;;;;;;;6.18;1.77;;;20.90;96.70;;;;;;5041123;28;20414;-80
2022/09/11 05:32:12;;;;;;;4.50;1.38;;;21.00;96.70;;;;;;5026127;28;20053;-80
2022/09/11 05:34:41;;;;;;;4.25;1.30;;;20.90;96.70;;;;;;5041242;28;20048;-79
2022/09/11 05:37:12;;;;;;;6.80;2.00;;;20.90;96.70;;;;;;5026623;28;20100;-79
2022/09/11 05:39:44;;;;;;;5.82;1.38;;;21.00;96.70;;;;;;5044255;28;20037;-80
2022/09/11 05:42:15;;;;;;;4.63;1.27;;;21.10;96.70;;;;;;5041159;28;20462;-80
2022/09/11 05:44:48;;;;;;;5.28;1.17;;;21.30;96.70;;;;;;5038267;28;20069;-80
2022/09/11 05:47:16;;;;;;;5.00;1.10;;;21.20;96.70;;;;;;5044281;28;20057;-80
2022/09/11 05:49:48;;;;;;;6.70;1.38;;;21.20;96.70;;;;;;5027826;28;20487;-79
2022/09/11 05:52:16;;;;;;;6.38;1.63;;;21.10;96.70;;;;;;5044018;28;20176;-80
2022/09/11 05:54:45;;;;;;;6.80;1.58;;;21.10;96.70;;;;;;5042548;28;20442;-80
2022/09/11 05:57:16;;;;;;;5.88;1.48;;;20.90;96.70;;;;;;5028175;28;20060;-80
2022/09/11 05:59:44;;;;;;;5.18;1.38;;;20.90;96.70;;;;;;5024588;28;20080;-80
2022/09/11 06:02:13;;;;;;;6.03;1.42;;;21.10;96.70;;;;;;5044280;28;20045;-79
2022/09/11 06:04:50;;;;;;;4.63;1.00;;;21.20;96.70;;;;;;5024191;28;20456;-80
2022/09/11 06:07:20;;;;;;;6.13;1.35;;;21.30;96.70;;;;;;5039265;28;20053;-79
2022/09/11 06:09:50;;;;;;;4.47;1.00;;;21.30;96.70;;;;;;5044410;28;20389;-80
2022/09/11 06:12:19;;;;;;;4.38;1.25;;;21.30;96.70;;;;;;5041758;28;20033;-79
2022/09/11 06:14:48;;;;;;;7.82;1.45;;;21.40;96.70;;;;;;5044397;28;20060;-79
2022/09/11 06:17:17;;;;;;;5.53;1.25;;;21.40;96.70;;;;;;5026596;28;20052;-77
2022/09/11 06:19:45;;;;;;;5.18;1.33;;;21.50;96.70;;;;;;5019063;28;20055;-76
2022/09/11 06:22:14;;;;;;;12.65;1.80;;;21.50;96.70;;;;;;5041325;28;20610;-77
2022/09/11 06:24:44;;;;;;;24.65;2.90;;;21.50;96.70;;;;;;5043710;28;20049;-77
2022/09/11 06:27:12;;;;;;;13.18;1.80;;;21.30;96.70;;;;;;5042086;28;20049;-76
2022/09/11 06:29:45;;;;;;;4.72;1.15;;;21.20;96.70;;;;;;5044646;28;20059;-76
2022/09/11 06:32:13;;;;;;;9.25;1.70;;;21.30;96.70;;;;;;5042350;28;20079;-76
2022/09/11 06:34:41;;;;;;;6.53;1.42;;;21.40;96.70;;;;;;5045858;28;20059;-79
2022/09/11 06:37:12;;;;;;;6.95;2.30;;;21.70;96.70;;;;;;5042339;28;20601;-79
2022/09/11 06:39:40;;;;;;;5.28;1.58;;;21.90;96.70;;;;;;5037964;28;20285;-78
2022/09/11 06:42:12;;;;;;;6.60;1.48;;;22.00;96.70;;;;;;5040590;28;20557;-78
2022/09/11 06:44:40;;;;;;;7.38;1.75;;;22.20;96.70;;;;;;5043870;28;20766;-79
2022/09/11 06:47:13;;;;;;;7.22;1.67;;;22.20;96.70;;;;;;5041313;28;20136;-78
2022/09/11 06:49:41;;;;;;;4.95;1.25;;;22.30;96.70;;;;;;5044831;28;20067;-78
2022/09/11 06:52:41;;;;;;;7.28;1.67;;;22.30;96.70;;;;;;5039995;28;20049;-78
2022/09/11 06:55:30;;;;;;;6.25;1.55;;;22.30;96.70;;;;;;5028330;28;20140;-79
2022/09/11 06:58:05;;;;;;;7.53;1.40;;;22.30;96.70;;;;;;5033034;28;20041;-79
2022/09/11 07:00:35;;;;;;;3.78;1.15;;;22.30;96.70;;;;;;5039803;28;20045;-78
2022/09/11 07:03:05;;;;;;;6.60;1.50;;;22.30;96.70;;;;;;5041806;28;20556;-79
2022/09/11 07:05:32;;;;;;;5.97;1.73;;;22.40;96.70;;;;;;5025331;28;20482;-79
2022/09/11 07:08:02;;;;;;;7.32;1.98;;;22.40;96.70;;;;;;5041985;28;20419;-78
2022/09/11 07:10:33;;;;;;;7.05;1.85;;;22.50;96.70;;;;;;5041588;28;20048;-80
2022/09/11 07:13:03;;;;;;;6.00;1.60;;;22.50;96.70;;;;;;5043792;28;20060;-80
2022/09/11 07:15:31;;;;;;;6.45;1.52;;;22.50;96.70;;;;;;5036165;28;20045;-80
2022/09/11 07:18:00;;;;;;;5.78;1.70;;;22.60;96.70;;;;;;5036105;28;20095;-80
2022/09/11 07:20:32;;;;;;;5.82;1.65;;;22.60;96.70;;;;;;5038060;28;20077;-80
2022/09/11 07:23:00;;;;;;;9.13;1.92;;;22.70;96.70;;;;;;5042885;28;20056;-81
2022/09/11 07:25:31;;;;;;;5.07;1.80;;;22.70;96.70;;;;;;5041212;28;20064;-80
2022/09/11 07:27:59;;;;;;;5.20;1.63;;;22.70;96.70;;;;;;5041592;28;20049;-80
2022/09/11 07:30:27;;;;;;;9.60;1.85;;;22.60;96.70;;;;;;5038201;28;20041;-80
2022/09/11 07:32:56;;;;;;;4.10;1.40;;;22.70;96.70;;;;;;5042919;28;20123;-76
2022/09/11 07:35:24;;;;;;;9.25;1.60;;;22.70;96.70;;;;;;5041425;28;20045;-77
2022/09/11 07:37:54;;;;;;;7.30;1.67;;;22.80;96.70;;;;;;5044253;28;20072;-77
2022/09/11 07:40:25;;;;;;;5.82;1.50;;;22.90;96.70;;;;;;5055287;28;20103;-77
2022/09/11 07:42:53;;;;;;;5.45;1.33;;;23.00;96.70;;;;;;5041564;28;20167;-77
2022/09/11 07:45:22;;;;;;;6.45;1.80;;;23.00;96.70;;;;;;5025943;28;20037;-78
2022/09/11 07:47:51;;;;;;;8.73;1.50;;;23.10;96.70;;;;;;5041981;28;20193;-78
2022/09/11 07:50:23;;;;;;;7.75;1.77;;;23.10;96.70;;;;;;5040499;28;20498;-77
2022/09/11 07:52:51;;;;;;;9.07;1.70;;;23.10;96.70;;;;;;5025145;28;20064;-78
2022/09/11 07:55:22;;;;;;;7.18;1.52;;;23.10;96.70;;;;;;5039554;28;20544;-77
2022/09/11 07:57:52;;;;;;;5.15;1.50;;;23.10;96.70;;;;;;5018182;28;20060;-78
2022/09/11 08:00:22;;;;;;;5.10;1.48;;;23.10;96.70;;;;;;5042179;28;20052;-79
2022/09/11 08:03:00;;;;;;;6.53;1.40;;;23.20;96.70;;;;;;5043319;28;20086;-78
2022/09/11 08:05:33;;;;;;;6.13;1.60;;;23.30;96.70;;;;;;5039345;28;20049;-77
2022/09/11 08:08:01;;;;;;;4.68;1.10;;;23.40;96.70;;;;;;5038719;28;20048;-78
2022/09/11 08:10:35;;;;;;;8.00;1.83;;;23.40;96.70;;;;;;5042186;28;20040;-78
2022/09/11 08:13:04;;;;;;;5.53;1.30;;;23.50;96.70;;;;;;5040800;28;20415;-78
2022/09/11 08:15:44;;;;;;;6.53;1.85;;;23.60;96.70;;;;;;5023125;28;20049;-78
2022/09/11 08:18:12;;;;;;;8.45;1.73;;;23.60;96.70;;;;;;5037309;28;20061;-78
2022/09/11 08:20:40;;;;;;;6.22;1.05;;;23.70;96.70;;;;;;5042154;28;20045;-78
2022/09/11 08:23:09;;;;;;;5.72;1.02;;;23.80;96.70;;;;;;5041369;28;20036;-78
2022/09/11 08:25:39;;;;;;;8.20;1.40;;;23.90;96.70;;;;;;5041986;28;20091;-78
2022/09/11 08:28:09;;;;;;;6.75;1.52;;;23.90;96.70;;;;;;5037093;28;20048;-79
2022/09/11 08:30:37;;;;;;;7.15;1.40;;;24.00;96.70;;;;;;5042263;28;20094;-78
2022/09/11 08:33:08;;;;;;;9.27;1.60;;;24.00;96.70;;;;;;5043684;28;20053;-77
2022/09/11 08:35:37;;;;;;;4.55;1.10;;;24.10;96.70;;;;;;5036857;28;20049;-77
2022/09/11 08:38:06;;;;;;;10.45;2.03;;;24.10;96.70;;;;;;5039928;28;20075;-77
2022/09/11 08:40:38;;;;;;;6.45;1.27;;;24.20;96.70;;;;;;5025390;28;20055;-78
2022/09/11 08:43:19;;;;;;;6.25;1.75;;;24.40;96.70;;;;;;5042519;28;20052;-78
2022/09/11 08:45:50;;;;;;;9.70;1.42;;;24.50;96.70;;;;;;5040682;28;20041;-78
2022/09/11 08:48:23;;;;;;;5.93;1.48;;;24.60;96.70;;;;;;5042616;28;20069;-79
2022/09/11 08:50:51;;;;;;;9.13;1.70;;;24.70;96.70;;;;;;5043834;28;20144;-78
2022/09/11 08:53:21;;;;;;;5.35;1.33;;;24.60;96.70;;;;;;5037147;28;20049;-77
2022/09/11 08:55:59;;;;;;;10.88;2.03;;;24.60;96.70;;;;;;5042926;28;20503;-80
2022/09/11 08:58:37;;;;;;;7.07;1.95;;;24.70;96.70;;;;;;5041770;28;20501;-77
2022/09/11 09:01:17;;;;;;;7.75;1.45;;;24.70;96.70;;;;;;5044291;28;20048;-78
2022/09/11 09:04:08;;;;;;;7.07;1.95;;;24.70;96.70;;;;;;5062678;28;20633;-79
2022/09/11 09:06:49;;;;;;;7.22;1.52;;;24.90;96.70;;;;;;5042541;28;20314;-78
2022/09/11 09:09:27;;;;;;;7.78;1.65;;;25.00;96.70;;;;;;5044852;28;20332;-77
2022/09/11 09:12:15;;;;;;;6.78;1.83;;;25.10;96.70;;;;;;5044302;28;20564;-78
2022/09/11 09:15:10;;;;;;;8.02;1.77;;;25.20;96.70;;;;;;5042245;28;20053;-77
2022/09/11 09:17:41;;;;;;;6.38;1.45;;;25.20;96.70;;;;;;5023481;28;20119;-77
2022/09/11 09:20:15;;;;;;;8.98;1.65;;;25.20;96.70;;;;;;5044345;28;20048;-78
2022/09/11 09:22:48;;;;;;;4.78;1.20;;;25.40;96.70;;;;;;5040273;28;20175;-77
2022/09/11 09:25:21;;;;;;;4.50;1.42;;;25.40;96.70;;;;;;5024212;28;20469;-78
2022/09/11 09:28:00;;;;;;;5.32;0.98;;;25.50;96.70;;;;;;5045481;28;20061;-78
2022/09/11 09:30:37;;;;;;;6.95;1.63;;;25.60;96.70;;;;;;5042804;28;20638;-77
2022/09/11 09:33:19;;;;;;;;;;;25.60;96.70;;;;;;5046288;28;20552;-78
2022/09/11 09:35:47;;;;;;;6.63;1.33;;;25.70;96.70;;;;;;5026056;28;19932;-78
2022/09/11 09:38:21;;;;;;;5.40;1.20;;;25.70;96.70;;;;;;5044205;28;20056;-78
2022/09/11 09:41:07;;;;;;;4.37;1.10;;;25.60;96.70;;;;;;5024280;28;20053;-78
2022/09/11 09:43:49;;;;;;;8.93;1.67;;;25.60;96.70;;;;;;5042653;28;20041;-78
2022/09/11 09:46:26;;;;;;;5.55;1.58;;;25.70;96.70;;;;;;5045932;28;20119;-77
2022/09/11 09:48:54;;;;;;;7.35;1.00;;;25.80;96.70;;;;;;5042575;28;20639;-78
2022/09/11 09:51:22;;;;;;;3.75;0.88;;;26.00;96.70;;;;;;5044405;28;20111;-78
2022/09/11 09:53:55;;;;;;;8.18;0.95;;;26.00;96.70;;;;;;5041875;28;20537;-78
2022/09/11 09:56:24;;;;;;;7.97;1.58;;;26.10;96.70;;;;;;5028105;28;20449;-77
2022/09/11 09:59:01;;;;;;;7.75;1.40;;;26.20;96.70;;;;;;5044456;28;20072;-78
2022/09/11 10:01:48;;;;;;;7.85;1.75;;;26.40;96.70;;;;;;5041114;28;20044;-78
2022/09/11 10:04:20;;;;;;;;;;;26.50;96.70;;;;;;5040615;28;20553;-78
2022/09/11 10:06:51;;;;;;;9.48;5.43;;;26.50;96.70;;;;;;5044418;28;20007;-78
2022/09/11 10:09:24;;;;;;;6.30;1.30;;;26.50;96.70;;;;;;5043388;28;20048;-79
2022/09/11 10:12:01;;;;;;;9.60;3.17;;;26.50;96.70;;;;;;5043681;28;20104;-78
2022/09/11 10:14:33;;;;;;;8.07;2.05;;;26.60;96.70;;;;;;5022227;28;20068;-78
2022/09/11 10:17:29;;;;;;;7.45;1.95;;;26.70;96.70;;;;;;5028988;28;20052;-77
2022/09/11 10:20:20;;;;;;;13.45;1.58;;;26.80;96.70;;;;;;5034416;28;20498;-78
2022/09/11 10:22:49;;;;;;;5.25;2.08;;;26.80;96.70;;;;;;5041170;28;20049;-77
2022/09/11 10:25:19;;;;;;;6.38;2.85;;;27.00;96.70;;;;;;5027724;28;20132;-78
2022/09/11 10:27:58;;;;;;;7.15;1.35;;;26.90;96.70;;;;;;5043972;28;20048;-78
2022/09/11 10:30:35;;;;;;;6.10;1.33;;;27.00;96.70;;;;;;5045602;28;20414;-77
2022/09/11 10:33:13;;;;;;;6.50;1.13;;;27.10;96.70;;;;;;5048162;28;20048;-79
2022/09/11 10:35:50;;;;;;;7.47;1.45;;;27.10;96.70;;;;;;5039119;28;20550;-78
2022/09/11 10:38:19;;;;;;;6.22;1.27;;;27.10;96.70;;;;;;5039236;28;20132;-78
2022/09/11 10:41:02;;;;;;;4.75;1.50;;;27.20;96.70;;;;;;5042779;28;20546;-79
2022/09/11 10:43:37;;;;;;;6.50;2.35;;;27.30;96.70;;;;;;5033122;28;20049;-80
2022/09/11 10:46:32;;;;;;;3.13;1.13;;;27.40;96.70;;;;;;5043760;28;20123;-79
2022/09/11 10:49:16;;;;;;;7.38;1.00;;;27.50;96.70;;;;;;5039507;28;20391;-79
2022/09/11 10:51:59;;;;;;;7.03;3.08;;;27.60;96.70;;;;;;5040459;28;20055;-79
2022/09/11 10:54:40;;;;;;;9.05;1.73;;;27.70;96.70;;;;;;5027202;28;20076;-80
2022/09/11 10:57:16;;;;;;;4.75;1.05;;;27.80;96.70;;;;;;5036340;28;20082;-79
2022/09/11 11:00:01;;;;;;;6.88;1.50;;;27.90;96.70;;;;;;5040468;28;20128;-80
2022/09/11 11:02:45;;;;;;;5.18;2.08;;;27.90;96.70;;;;;;5040724;28;20498;-80
2022/09/11 11:05:25;;;;;;;5.95;1.00;;;28.00;96.70;;;;;;5043661;28;20083;-79
2022/09/11 11:08:26;;;;;;;6.47;3.42;;;28.00;96.70;;;;;;5042335;28;20566;-79
2022/09/11 11:11:13;;;;;;;6.15;1.80;;;28.20;96.70;;;;;;5034168;28;20041;-79
2022/09/11 11:13:55;;;;;;;3.75;1.10;;;28.30;96.70;;;;;;5043377;28;20036;-79
2022/09/11 11:16:34;;;;;;;7.90;0.90;;;28.40;96.70;;;;;;5040525;28;20045;-79
2022/09/11 11:19:27;;;;;;;6.07;1.00;;;28.40;96.70;;;;;;5038867;28;20045;-79
2022/09/11 11:22:02;;;;;;;6.45;2.55;;;28.60;96.70;;;;;;5035984;28;20051;-80
2022/09/11 11:24:49;;;;;;;4.43;1.58;;;28.70;96.70;;;;;;5041386;28;20044;-79
2022/09/11 11:27:31;;;;;;;4.03;1.00;;;28.60;96.70;;;;;;5042618;28;20410;-79
2022/09/11 11:30:10;;;;;;;5.55;1.20;;;28.70;96.70;;;;;;5030298;28;20769;-80
2022/09/11 11:33:00;;;;;;;5.32;0.98;;;28.60;96.70;;;;;;5043597;28;20047;-80
2022/09/11 11:36:01;;;;;;;9.18;1.15;;;28.70;96.70;;;;;;5040254;28;20506;-80
2022/09/11 11:38:59;;;;;;;3.55;1.40;;;28.80;96.70;;;;;;5011844;28;20057;-80
2022/09/11 11:41:33;;;;;;;4.53;0.80;;;29.00;96.70;;;;;;5039146;28;20053;-79
2022/09/11 11:44:04;;;;;;;8.13;3.35;;;29.00;96.70;;;;;;5041502;28;20119;-80
2022/09/11 11:46:37;;;;;;;3.88;1.38;;;29.00;96.70;;;;;;5042357;28;20056;-79
2022/09/11 11:49:11;;;;;;;3.75;1.00;;;29.00;96.70;;;;;;5040867;28;20127;-79
2022/09/11 11:51:48;;;;;;;5.88;2.70;;;29.20;96.70;;;;;;5043618;28;20095;-80
2022/09/11 11:54:22;;;;;;;6.72;1.48;;;29.20;96.70;;;;;;5040670;28;20049;-80
2022/09/11 11:56:53;;;;;;;3.72;0.70;;;29.30;96.70;;;;;;5043474;28;20399;-79
2022/09/11 11:59:30;;;;;;;3.53;0.90;;;29.30;96.70;;;;;;5041705;28;20056;-79
2022/09/11 12:02:02;;;;;;;4.80;0.75;;;29.10;96.70;;;;;;5040524;28;20045;-80
2022/09/11 12:04:41;;;;;;;5.10;0.93;;;29.20;96.70;;;;;;5037533;28;20107;-80
2022/09/11 12:07:17;;;;;;;6.50;0.80;;;29.20;96.70;;;;;;5040982;28;20053;-79
2022/09/11 12:09:48;;;;;;;3.20;0.70;;;29.20;96.70;;;;;;5043347;28;20077;-79
2022/09/11 12:12:18;;;;;;;2.72;0.50;;;29.20;96.70;;;;;;5043680;28;20115;-79
2022/09/11 12:14:53;;;;;;;2.83;0.65;;;29.10;96.70;;;;;;5042702;28;20083;-79
2022/09/11 12:17:26;;;;;;;4.17;0.67;;;29.20;96.70;;;;;;5041027;28;20061;-79
2022/09/11 12:20:36;;;;;;;3.55;0.65;;;29.20;96.70;;;;;;5025719;28;20148;-80
2022/09/11 12:23:32;;;;;;;3.63;0.73;;;29.30;96.70;;;;;;5028084;28;20045;-79
2022/09/11 12:26:16;;;;;;;6.55;0.98;;;29.40;96.70;;;;;;5046380;28;20051;-80
2022/09/11 12:28:46;;;;;;;2.28;0.85;;;29.50;96.70;;;;;;5044037;28;20051;-79
2022/09/11 12:31:15;;;;;;;3.67;0.60;;;29.60;96.70;;;;;;5045485;28;20045;-79
2022/09/11 12:33:53;;;;;;;4.47;0.95;;;29.40;96.70;;;;;;5035097;28;20080;-80
2022/09/11 12:36:32;;;;;;;2.88;0.70;;;29.60;96.70;;;;;;5045085;28;20456;-79
2022/09/11 12:39:16;;;;;;;5.75;0.75;;;29.60;96.70;;;;;;5029511;28;20079;-79
2022/09/11 12:41:45;;;;;;;3.00;0.63;;;29.60;96.70;;;;;;5045232;28;20516;-79
2022/09/11 12:44:31;;;;;;;5.07;0.80;;;29.60;96.70;;;;;;5042526;28;20037;-79
2022/09/11 12:47:18;;;;;;;3.80;0.60;;;29.50;96.70;;;;;;5045072;28;20044;-79
2022/09/11 12:49:54;;;;;;;3.10;0.60;;;29.50;96.70;;;;;;5046029;28;20453;-79
2022/09/11 12:52:46;;;;;;;3.17;0.60;;;29.70;96.70;;;;;;5045199;28;20105;-80
2022/09/11 12:55:30;;;;;;;3.20;0.77;;;29.70;96.70;;;;;;5045005;28;20049;-79
2022/09/11 12:58:01;;;;;;;6.22;0.75;;;29.70;96.70;;;;;;5040966;28;20076;-79
2022/09/11 13:00:37;;;;;;;4.45;0.93;;;29.70;96.70;;;;;;5044213;28;20273;-79
2022/09/11 13:03:15;;;;;;;5.10;1.10;;;29.70;96.70;;;;;;5039214;28;20143;-79
2022/09/11 13:05:58;;;;;;;2.67;0.70;;;29.80;96.70;;;;;;5041455;28;20049;-80
2022/09/11 13:08:33;;;;;;;2.40;0.68;;;29.90;96.70;;;;;;5059704;28;20063;-80
2022/09/11 13:11:49;;;;;;;4.10;0.80;;;29.80;96.70;;;;;;5044685;28;20052;-79
2022/09/11 13:14:47;;;;;;;4.05;0.90;;;29.70;96.70;;;;;;4990477;28;20498;-79
2022/09/11 13:17:29;;;;;;;4.68;0.70;;;29.70;96.70;;;;;;5048794;28;20499;-79
2022/09/11 13:20:19;;;;;;;2.30;0.47;;;29.70;96.70;;;;;;5038117;28;20123;-79
2022/09/11 13:22:48;;;;;;;3.83;0.70;;;29.80;96.70;;;;;;5053892;28;20517;-79
2022/09/11 13:25:25;;;;;;;4.25;0.80;;;29.90;96.70;;;;;;5043957;28;20136;-79